Nearby METAR Reports

 

KPBI - West Palm Beach, Florida, USA
Distance from station: NNE 9mi, 14km
Updated: Wed, 16-Oct-2019 12:53am EDT
Partly cloudy
Partly cloudy
 Wind from SE
Wind: SE 6 mph , 9 km/h
Temperature: 79°F , 26°C
Dew Point: 68°F , 20°C
Humidity: 70%
Barometer: 29.99 inHg , 1015.6 hPa
Clouds: Partly cloudy
Visibility: 10 miles , 16 km
Cloud details: Few Clouds 3000 ft
Partly cloudy 4700 ft
2019/10/16 04:53 KPBI 160453Z 14005KT 10SM FEW030 SCT047 26/20 A2999 RMK AO2 SLP153 T02560200 402890222
KBCT - Boca Raton, Florida, USA
Distance from station: SSE 13mi, 21km
Updated: Tue, 15-Oct-2019 10:47pm EDT
NOT Current
Mostly cloudy
Mostly cloudy
 Wind from ESE
Wind: ESE 8 mph , 13 km/h
Temperature: 81°F , 27°C
Heat Index: 84°F , 29°C
Dew Point: 68°F , 20°C
Humidity: 66%
Barometer: 30.00 inHg , 1015.9 hPa
Clouds: Mostly cloudy
Visibility: 10 miles , 16 km
Cloud details: Mostly cloudy 4900 ft
2019/10/16 02:47 KBCT 160247Z 12007KT 10SM BKN049 27/20 A3000 RMK LAST
 
KPMP - Pompano Beach, Florida, USA
Distance from station: S 22mi, 36km
Updated: Wed, 16-Oct-2019 12:53am EDT
Clear
Clear
 Wind from SE
Wind: SE 8 mph , 13 km/h
Temperature: 81°F , 27°C
Heat Index: 85°F , 29°C
Dew Point: 70°F , 21°C
Humidity: 70%
Barometer: 29.98 inHg , 1015.2 hPa
Clouds: Clear
Visibility: 10 miles , 16 km
2019/10/16 04:53 KPMP 160453Z AUTO 13007KT 10SM CLR 27/21 A2998 RMK AO2 SLP151 T02670206 403000228
KFXE - Ft Lauderd/Exec, Florida, USA
Distance from station: S 25mi, 41km
Updated: Wed, 16-Oct-2019 12:53am EDT
Clear
Clear
 Wind from ESE
Wind: ESE 3 mph , 6 km/h
Temperature: 77°F , 25°C
Dew Point: 70°F , 21°C
Humidity: 79%
Barometer: 29.98 inHg , 1015.2 hPa
Clouds: Clear
Visibility: 10 miles , 16 km
2019/10/16 04:53 KFXE 160453Z 11003KT 10SM CLR 25/21 A2998 RMK AO2 SLP153 T02500211 402940222 $
 
KFLL - Ft Lauderd/Holly, Florida, USA
Distance from station: S 35mi, 56km
Updated: Wed, 16-Oct-2019 12:53am EDT
Few Clouds
Few Clouds
 Wind from SE
Wind: SE 8 mph , 13 km/h
Temperature: 79°F , 26°C
Dew Point: 72°F , 22°C
Humidity: 79%
Barometer: 29.97 inHg , 1014.9 hPa
Clouds: Few Clouds
Visibility: 10 miles , 16 km
Cloud details: Few Clouds 3000 ft
2019/10/16 04:53 KFLL 160453Z 13007KT 10SM FEW030 26/22 A2997 RMK AO2 SLP147 T02610217 402940233
KHWO - Hollywood, Florida, USA
Distance from station: S 39mi, 64km
Updated: Wed, 16-Oct-2019 12:53am EDT
Clear
Clear
 Wind from ESE
Wind: ESE 5 mph , 7 km/h
Temperature: 81°F , 27°C
Heat Index: 85°F , 29°C
Dew Point: 72°F , 22°C
Humidity: 74%
Barometer: 29.99 inHg , 1015.6 hPa
Clouds: Clear
Visibility: 10 miles , 16 km
2019/10/16 04:53 KHWO 160453Z AUTO 12004KT 10SM CLR 27/22 A2999 RMK AO2 SLP154 T02670217 403060228
 
KSUA - Stuart/Witham, Florida, USA
Distance from station: N 43mi, 69km
Updated: Wed, 16-Oct-2019 12:55am EDT
Clear
Clear
 Wind from SSE
Wind: SSE 3 mph , 6 km/h
Temperature: 77°F , 25°C
Dew Point: 68°F , 20°C
Humidity: 74%
Barometer: 29.99 inHg , 1015.6 hPa
Clouds: Clear
Visibility: 10 miles , 16 km
2019/10/16 04:55 KSUA 160455Z AUTO 16003KT 10SM CLR 25/20 A2999 RMK AO2
KOPF - Miami/Opa Locka, Florida, USA
Distance from station: S 46mi, 73km
Updated: Wed, 16-Oct-2019 12:53am EDT
Clear
Clear
 Wind from ESE
Wind: ESE 3 mph , 6 km/h
Temperature: 79°F , 26°C
Dew Point: 72°F , 22°C
Humidity: 79%
Barometer: 29.98 inHg , 1015.2 hPa
Clouds: Clear
Visibility: 10 miles , 16 km
2019/10/16 04:53 KOPF 160453Z AUTO 11003KT 10SM CLR 26/22 A2998 RMK AO2 SLP153 T02560217 403110233
 
KMIA - Miami, Florida, USA
Distance from station: S 54mi, 86km
Updated: Wed, 16-Oct-2019 12:53am EDT
Partly cloudy
Partly cloudy
 Wind from ESE
Wind: ESE 5 mph , 7 km/h
Temperature: 79°F , 26°C
Dew Point: 72°F , 22°C
Humidity: 79%
Barometer: 29.98 inHg , 1015.2 hPa
Clouds: Partly cloudy
Visibility: 10 miles , 16 km
Cloud details: Few Clouds 2500 ft
Partly cloudy 25000 ft
2019/10/16 04:53 KMIA 160453Z 12004KT 10SM FEW025 SCT250 26/22 A2998 RMK AO2 SLP150 T02610217 403110239
KOBE - Okeechobee Cty, Florida, USA
Distance from station: NW 64mi, 104km
Updated: Wed, 16-Oct-2019 12:55am EDT
Clear
Clear
 Wind from calm
Wind: Calm
Temperature: 72°F , 22°C
Dew Point: 68°F , 20°C
Humidity: 88%
Barometer: 29.98 inHg , 1015.2 hPa
Clouds: Clear
Visibility: 10 miles , 16 km
2019/10/16 04:55 KOBE 160455Z AUTO 00000KT 10SM CLR 22/20 A2998 RMK AO2
 
KFPR - Fort Pierce, Florida, USA
Distance from station: NNW 66mi, 106km
Updated: Wed, 16-Oct-2019 12:53am EDT
Clear
Clear
 Wind from calm
Wind: Calm
Temperature: 70°F , 21°C
Dew Point: 66°F , 19°C
Humidity: 88%
Barometer: 29.98 inHg , 1015.2 hPa
Clouds: Clear
Visibility: 10 miles , 16 km
2019/10/16 04:53 KFPR 160453Z AUTO 00000KT 10SM CLR 21/19 A2998 RMK AO2 SLP150 T02110194 402890194
KTMB - Miami/Tamiami, Florida, USA
Distance from station: SSW 66mi, 106km
Updated: Wed, 16-Oct-2019 12:53am EDT
Clear
Clear
 Wind from SE
Wind: SE 6 mph , 9 km/h
Temperature: 79°F , 26°C
Dew Point: 73°F , 23°C
Humidity: 84%
Barometer: 29.97 inHg , 1014.9 hPa
Clouds: Clear
Visibility: 10 miles , 16 km
2019/10/16 04:53 KTMB 160453Z AUTO 13005KT 10SM CLR 26/23 A2997 RMK AO2 SLP148 T02560228 403110222
 
KVRB - Vero Beach, Florida, USA
Distance from station: NNW 76mi, 123km
Updated: Wed, 16-Oct-2019 12:53am EDT
Clear
Clear
 Wind from SSE
Wind: SSE 6 mph , 9 km/h
Temperature: 75°F , 24°C
Dew Point: 70°F , 21°C
Humidity: 83%
Barometer: 29.97 inHg , 1014.9 hPa
Clouds: Clear
Visibility: 10 miles , 16 km
2019/10/16 04:53 KVRB 160453Z AUTO 16005KT 10SM CLR 24/21 A2997 RMK AO2 SLP149 T02440211 403000200
KHST - Homestead Afb, Florida, USA
Distance from station: S 77mi, 124km
Updated: Wed, 16-Oct-2019 12:56am EDT
Clear
Clear
 Wind from E
Wind: E 5 mph , 7 km/h
Temperature: 77°F , 25°C
Dew Point: 73°F , 23°C
Humidity: 89%
Barometer: 29.96 inHg , 1014.6 hPa
Clouds: Clear
Visibility: 10 miles , 16 km
2019/10/16 04:56 KHST 160456Z AUTO 10004KT 10SM CLR 25/23 A2996 RMK AO2 SLP149 T02530229 403030230
 
KIMM - Immokalee, Florida, USA
Distance from station: W 77mi, 124km
Updated: Wed, 16-Oct-2019 12:55am EDT
Overcast
Overcast
 Wind from SE
Wind: SE 5 mph , 7 km/h
Temperature: 77°F , 25°C
Dew Point: 73°F , 23°C
Humidity: 89%
Barometer: 29.98 inHg , 1015.2 hPa
Clouds: Overcast
Visibility: 10 miles , 16 km
Cloud details: Mostly cloudy 2300 ft
Mostly cloudy 3100 ft
Overcast 3600 ft
2019/10/16 04:55 KIMM 160455Z AUTO 14004KT 10SM BKN023 BKN031 OVC036 25/23 A2998 RMK AO2
MYGF - Freeport Intl A, Bahamas
Distance from station: E 90mi, 145km
Updated: Tue, 15-Oct-2019 7:00pm EDT
NOT Current
Few Clouds
Few Clouds
 Wind from SE
Wind: SE 5 mph , 7 km/h
Temperature: 79°F , 26°C
Dew Point: 70°F , 21°C
Humidity: 74%
Barometer: 30.00 inHg , 1015.9 hPa
Clouds: Few Clouds
Visibility: 6 miles , 10 km
Cloud details: Few Clouds 2000 ft
2019/10/15 23:00 MYGF 152300Z 14004KT 9999 FEW020 26/21 A3000
 
KSEF - Sebring, Florida, USA
Distance from station: NW 95mi, 153km
Updated: Wed, 16-Oct-2019 12:55am EDT
Clear
Clear
 Wind from SSE
Wind: SSE 7 mph , 11 km/h
Temperature: 75°F , 24°C
Dew Point: 72°F , 22°C
Humidity: 89%
Barometer: 29.99 inHg , 1015.6 hPa
Clouds: Clear
Visibility: 10 miles , 16 km
2019/10/16 04:55 KSEF 160455Z AUTO 15006KT 10SM CLR 24/22 A2999 RMK AO2 T02360219
KRSW - Fort Myers, Florida, USA
Distance from station: W 98mi, 158km
Updated: Wed, 16-Oct-2019 12:53am EDT
Partly cloudy
Partly cloudy
 Wind from calm
Wind: Calm
Temperature: 79°F , 26°C
Dew Point: 73°F , 23°C
Humidity: 84%
Barometer: 29.97 inHg , 1014.9 hPa
Clouds: Partly cloudy
Visibility: 10 miles , 16 km
Cloud details: Few Clouds 3100 ft
Partly cloudy 4300 ft
2019/10/16 04:53 KRSW 160453Z AUTO 00000KT 10SM FEW031 SCT043 26/23 A2997 RMK AO2 SLP148 T02560228 403280222